createdAt,value
2024-03-14T00:00:19.005Z,100.00
2024-03-14T00:03:09.234Z,100.00
2024-03-14T00:05:37.103Z,100.00
2024-03-14T00:08:05.815Z,100.00
2024-03-14T00:10:34.441Z,100.00
2024-03-14T00:13:02.742Z,100.00
2024-03-14T00:15:31.514Z,100.00
2024-03-14T00:17:59.507Z,100.00
2024-03-14T00:20:27.734Z,100.00
2024-03-14T00:22:55.865Z,100.00
2024-03-14T00:25:23.735Z,100.00
2024-03-14T00:27:51.520Z,100.00
2024-03-14T00:30:20.055Z,100.00
2024-03-14T00:32:47.836Z,100.00
2024-03-14T00:35:16.485Z,100.00
2024-03-14T00:37:45.282Z,100.00
2024-03-14T00:40:13.257Z,100.00
2024-03-14T00:42:46.286Z,100.00
2024-03-14T00:45:16.008Z,100.00
2024-03-14T00:47:44.205Z,100.00
2024-03-14T00:50:12.225Z,100.00
2024-03-14T00:52:41.349Z,100.00
2024-03-14T00:55:11.190Z,100.00
2024-03-14T00:57:43.424Z,100.00
2024-03-14T01:00:14.351Z,100.00
2024-03-14T01:02:44.977Z,100.00
2024-03-14T01:05:13.426Z,100.00
2024-03-14T01:07:41.652Z,100.00
2024-03-14T01:10:10.855Z,100.00
2024-03-14T01:12:39.978Z,100.00
2024-03-14T01:15:09.159Z,100.00
2024-03-14T01:17:37.117Z,100.00
2024-03-14T01:20:11.410Z,100.00
2024-03-14T01:22:39.720Z,100.00
2024-03-14T01:25:07.579Z,100.00
2024-03-14T01:27:35.538Z,100.00
2024-03-14T01:30:04.383Z,100.00
2024-03-14T01:32:34.572Z,100.00
2024-03-14T01:35:02.536Z,100.00
2024-03-14T01:37:30.688Z,100.00
2024-03-14T01:39:58.698Z,100.00
2024-03-14T01:42:26.491Z,100.00
2024-03-14T01:44:58.415Z,100.00
2024-03-14T01:47:26.458Z,100.00
2024-03-14T01:49:54.296Z,100.00
2024-03-14T01:52:22.311Z,100.00
2024-03-14T01:54:50.330Z,100.00
2024-03-14T01:57:21.163Z,100.00
2024-03-14T01:59:51.170Z,100.00
2024-03-14T02:02:19.961Z,100.00
2024-03-14T02:04:53.444Z,100.00
2024-03-14T02:07:27.304Z,100.00
2024-03-14T02:09:55.050Z,100.00
2024-03-14T02:12:23.006Z,100.00
2024-03-14T02:14:50.986Z,100.00
2024-03-14T02:17:18.797Z,100.00
2024-03-14T02:19:46.888Z,100.00
2024-03-14T02:22:23.512Z,100.00
2024-03-14T02:24:53.854Z,100.00
2024-03-14T02:27:21.680Z,100.00
2024-03-14T02:29:49.966Z,100.00
2024-03-14T02:32:19.370Z,100.00
2024-03-14T02:34:47.160Z,100.00
2024-03-14T02:37:14.997Z,100.00
2024-03-14T02:39:43.005Z,100.00
2024-03-14T02:42:12.698Z,100.00
2024-03-14T02:44:40.780Z,100.00
2024-03-14T02:47:08.687Z,100.00
2024-03-14T02:49:36.886Z,100.00
2024-03-14T02:52:04.854Z,100.00
2024-03-14T02:54:32.730Z,100.00
2024-03-14T02:57:00.740Z,100.00
2024-03-14T02:59:28.954Z,100.00
2024-03-14T03:01:56.775Z,100.00
2024-03-14T03:04:25.685Z,100.00
2024-03-14T03:06:56.595Z,100.00
2024-03-14T03:09:24.948Z,100.00
2024-03-14T03:11:54.289Z,100.00
2024-03-14T03:14:22.898Z,100.00
2024-03-14T03:16:50.994Z,100.00
2024-03-14T03:19:19.375Z,100.00
2024-03-14T03:21:47.149Z,100.00
2024-03-14T03:24:15.279Z,100.00
2024-03-14T03:26:43.148Z,100.00
2024-03-14T03:29:13.958Z,100.00
2024-03-14T03:31:41.993Z,100.00
2024-03-14T03:34:09.728Z,100.00
2024-03-14T03:36:38.284Z,100.00
2024-03-14T03:39:13.037Z,100.00
2024-03-14T03:41:41.870Z,100.00
2024-03-14T03:44:10.460Z,100.00
2024-03-14T03:46:43.694Z,100.00
2024-03-14T03:49:11.627Z,100.00
2024-03-14T03:51:39.382Z,100.00
2024-03-14T03:54:07.218Z,100.00
2024-03-14T03:56:35.069Z,100.00
2024-03-14T03:59:02.785Z,100.00
2024-03-14T04:01:30.570Z,100.00
2024-03-14T04:03:58.330Z,100.00
2024-03-14T04:06:26.072Z,100.00
2024-03-14T04:08:54.457Z,100.00
2024-03-14T04:11:22.517Z,100.00
2024-03-14T04:13:50.272Z,100.00
2024-03-14T04:16:18.067Z,100.00
2024-03-14T04:18:46.662Z,100.00
2024-03-14T04:21:15.930Z,100.00
2024-03-14T04:23:43.829Z,100.00
2024-03-14T04:26:17.189Z,100.00
2024-03-14T04:28:46.584Z,100.00
2024-03-14T04:31:14.322Z,100.00
2024-03-14T04:33:43.294Z,100.00
2024-03-14T04:36:11.302Z,100.00
2024-03-14T04:38:39.973Z,100.00
2024-03-14T04:41:16.614Z,100.00
2024-03-14T04:43:48.066Z,100.00
2024-03-14T04:46:15.934Z,100.00
2024-03-14T04:48:43.778Z,100.00
2024-03-14T04:51:13.916Z,100.00
2024-03-14T04:53:42.513Z,100.00
2024-03-14T04:56:10.338Z,100.00
2024-03-14T04:58:38.995Z,100.00
2024-03-14T05:01:07.775Z,100.00
2024-03-14T05:03:35.944Z,100.00
2024-03-14T05:06:04.817Z,100.00
2024-03-14T05:08:32.770Z,100.00
2024-03-14T05:11:00.804Z,100.00
2024-03-14T05:13:29.584Z,100.00
2024-03-14T05:15:58.807Z,100.00
2024-03-14T05:18:27.470Z,100.00
2024-03-14T05:20:56.241Z,100.00
2024-03-14T05:23:24.314Z,100.00
2024-03-14T05:25:55.825Z,100.00
2024-03-14T05:28:23.798Z,100.00
2024-03-14T05:30:53.653Z,100.00
2024-03-14T05:33:21.738Z,100.00
2024-03-14T05:35:51.613Z,100.00
2024-03-14T05:38:19.553Z,100.00
2024-03-14T05:40:47.272Z,100.00
2024-03-14T05:43:15.662Z,100.00
2024-03-14T05:45:43.930Z,100.00
2024-03-14T05:48:14.439Z,100.00
2024-03-14T05:50:45.708Z,100.00
2024-03-14T05:53:13.552Z,100.00
2024-03-14T05:55:41.354Z,100.00
2024-03-14T05:58:09.533Z,100.00
2024-03-14T06:00:37.684Z,100.00
2024-03-14T06:03:05.527Z,100.00
2024-03-14T06:05:33.435Z,100.00
2024-03-14T06:08:01.320Z,100.00
2024-03-14T06:10:31.412Z,100.00
2024-03-14T06:12:59.453Z,100.00
2024-03-14T06:15:27.444Z,100.00
2024-03-14T06:17:55.453Z,100.00
2024-03-14T06:20:26.268Z,100.00
2024-03-14T06:22:54.325Z,100.00
2024-03-14T06:25:23.563Z,100.00
2024-03-14T06:27:51.320Z,100.00
2024-03-14T06:30:20.401Z,100.00
2024-03-14T06:32:49.192Z,100.00
2024-03-14T06:35:17.577Z,100.00
2024-03-14T06:37:45.812Z,100.00
2024-03-14T06:40:17.440Z,100.00
2024-03-14T06:42:46.906Z,100.00
2024-03-14T06:45:15.156Z,100.00
2024-03-14T06:47:46.737Z,100.00
2024-03-14T06:50:16.276Z,100.00
2024-03-14T06:52:44.336Z,100.00
2024-03-14T06:55:13.739Z,100.00
2024-03-14T06:57:41.941Z,100.00
2024-03-14T07:00:19.447Z,100.00
2024-03-14T07:02:47.529Z,100.00
2024-03-14T07:05:20.828Z,100.00
2024-03-14T07:07:50.318Z,100.00
2024-03-14T07:10:18.199Z,100.00
2024-03-14T07:12:47.875Z,100.00
2024-03-14T07:15:19.277Z,100.00
2024-03-14T07:17:47.950Z,100.00
2024-03-14T07:20:20.011Z,100.00
2024-03-14T07:22:48.120Z,100.00
2024-03-14T07:25:20.178Z,100.00
2024-03-14T07:27:49.730Z,100.00
2024-03-14T07:30:18.290Z,100.00
2024-03-14T07:32:46.761Z,100.00
2024-03-14T07:35:16.526Z,100.00
2024-03-14T07:37:47.120Z,100.00
2024-03-14T07:40:19.156Z,100.00
2024-03-14T07:42:47.921Z,99.98
2024-03-14T07:45:19.793Z,100.00
2024-03-14T07:47:53.846Z,99.75
2024-03-14T07:50:24.421Z,99.81
2024-03-14T07:52:52.521Z,99.63
2024-03-14T07:55:20.307Z,98.85
2024-03-14T07:57:48.394Z,98.72
2024-03-14T08:00:17.051Z,98.46
2024-03-14T08:02:55.778Z,97.28
2024-03-14T08:05:26.145Z,98.20
2024-03-14T08:08:04.832Z,97.47
2024-03-14T08:10:46.717Z,97.35
2024-03-14T08:13:25.373Z,96.52
2024-03-14T08:15:54.212Z,97.03
2024-03-14T08:18:26.265Z,97.10
2024-03-14T08:20:57.932Z,96.89
2024-03-14T08:23:27.756Z,96.09
2024-03-14T08:25:55.870Z,93.77
2024-03-14T08:28:24.560Z,94.31
2024-03-14T08:30:52.779Z,95.27
2024-03-14T08:33:24.557Z,95.08
2024-03-14T08:35:54.148Z,94.42
2024-03-14T08:38:22.046Z,93.56
2024-03-14T08:40:49.868Z,93.61
2024-03-14T08:43:17.654Z,92.67
2024-03-14T08:45:45.513Z,93.24
2024-03-14T08:48:13.564Z,92.95
2024-03-14T08:50:42.399Z,91.68
2024-03-14T08:53:14.516Z,89.51
2024-03-14T08:55:56.398Z,92.29
2024-03-14T08:58:27.494Z,91.94
2024-03-14T09:00:58.007Z,91.79
2024-03-14T09:03:26.731Z,91.53
2024-03-14T09:05:54.797Z,90.53
2024-03-14T09:08:26.654Z,90.87
2024-03-14T09:10:55.171Z,89.59
2024-03-14T09:13:23.563Z,90.22
2024-03-14T09:15:52.391Z,89.78
2024-03-14T09:18:26.912Z,89.40
2024-03-14T09:20:57.534Z,88.59
2024-03-14T09:23:27.211Z,88.98
2024-03-14T09:25:56.759Z,88.51
2024-03-14T09:28:28.622Z,86.89
2024-03-14T09:30:59.997Z,88.57
2024-03-14T09:33:29.327Z,88.79
2024-03-14T09:35:57.852Z,88.56
2024-03-14T09:38:25.742Z,87.57
2024-03-14T09:40:59.768Z,88.14
2024-03-14T09:43:34.110Z,87.32
2024-03-14T09:46:02.535Z,86.92
2024-03-14T09:48:31.576Z,87.40
2024-03-14T09:51:03.967Z,86.68
2024-03-14T09:53:33.161Z,86.50
2024-03-14T09:56:00.922Z,87.15
2024-03-14T09:58:30.196Z,85.11
2024-03-14T10:00:58.596Z,85.82
2024-03-14T10:03:26.566Z,82.23
2024-03-14T10:05:55.239Z,82.65
2024-03-14T10:08:23.508Z,84.15
2024-03-14T10:10:51.813Z,85.10
2024-03-14T10:13:30.573Z,83.84
2024-03-14T10:15:58.332Z,83.05
2024-03-14T10:18:28.236Z,82.06
2024-03-14T10:20:56.453Z,80.16
2024-03-14T10:23:26.768Z,79.26
2024-03-14T10:25:55.492Z,77.87
2024-03-14T10:28:29.752Z,78.88
2024-03-14T10:31:05.670Z,76.89
2024-03-14T10:33:38.690Z,76.21
2024-03-14T10:36:13.190Z,74.67
2024-03-14T10:38:42.474Z,76.56
2024-03-14T10:41:13.734Z,75.93
2024-03-14T10:43:46.560Z,75.09
2024-03-14T10:46:15.222Z,73.53
2024-03-14T10:48:47.347Z,72.73
2024-03-14T10:51:16.473Z,69.72
2024-03-14T10:53:46.746Z,68.15
2024-03-14T10:56:24.186Z,68.43
2024-03-14T10:58:56.492Z,66.04
2024-03-14T11:01:26.935Z,66.42
2024-03-14T11:03:55.107Z,63.07
2024-03-14T11:06:26.699Z,61.98
2024-03-14T11:09:00.691Z,61.85
2024-03-14T11:11:32.049Z,60.03
2024-03-14T11:14:01.423Z,63.02
2024-03-14T11:16:29.946Z,61.85
2024-03-14T11:19:04.805Z,62.83
2024-03-14T11:21:36.190Z,61.38
2024-03-14T11:24:11.743Z,59.22
2024-03-14T11:26:45.408Z,60.60
2024-03-14T11:29:18.968Z,59.57
2024-03-14T11:31:47.305Z,57.84
2024-03-14T11:34:16.997Z,57.14
2024-03-14T11:36:52.186Z,57.86
2024-03-14T11:39:27.431Z,58.10
2024-03-14T11:42:11.600Z,56.82
2024-03-14T11:44:44.469Z,55.68
2024-03-14T11:47:15.421Z,55.81
2024-03-14T11:49:44.457Z,57.22
2024-03-14T11:52:12.762Z,56.91
2024-03-14T11:54:42.625Z,56.58
2024-03-14T11:57:16.843Z,56.65
2024-03-14T11:59:52.940Z,56.47
2024-03-14T12:02:28.996Z,57.42
2024-03-14T12:04:57.869Z,56.85
2024-03-14T12:07:27.687Z,58.03
2024-03-14T12:09:55.528Z,56.29
2024-03-14T12:12:23.363Z,55.86
2024-03-14T12:14:57.123Z,56.60
2024-03-14T12:17:24.974Z,56.31
2024-03-14T12:19:55.713Z,57.19
2024-03-14T12:22:23.612Z,56.87
2024-03-14T12:25:02.112Z,57.80
2024-03-14T12:27:29.965Z,56.86
2024-03-14T12:29:59.853Z,56.06
2024-03-14T12:32:30.983Z,55.29
2024-03-14T12:35:02.647Z,54.82
2024-03-14T12:37:30.676Z,56.41
2024-03-14T12:39:58.985Z,55.25
2024-03-14T12:42:26.850Z,55.56
2024-03-14T12:44:55.618Z,55.72
2024-03-14T12:47:24.828Z,56.51
2024-03-14T12:49:53.294Z,55.99
2024-03-14T12:52:21.136Z,55.43
2024-03-14T12:54:50.870Z,56.72
2024-03-14T12:57:21.430Z,56.49
2024-03-14T12:59:50.834Z,56.29
2024-03-14T13:02:21.591Z,55.46
2024-03-14T13:04:49.415Z,55.83
2024-03-14T13:07:20.448Z,55.53
2024-03-14T13:10:25.046Z,55.49
2024-03-14T13:12:59.058Z,57.04
2024-03-14T13:15:26.969Z,57.25
2024-03-14T13:17:55.504Z,57.57
2024-03-14T13:20:31.175Z,57.14
2024-03-14T13:22:59.873Z,56.88
2024-03-14T13:25:27.802Z,56.65
2024-03-14T13:27:55.614Z,55.76
2024-03-14T13:30:23.551Z,57.04
2024-03-14T13:32:57.660Z,57.83
2024-03-14T13:35:27.324Z,58.13
2024-03-14T13:37:58.549Z,59.24
2024-03-14T13:40:27.058Z,58.89
2024-03-14T13:42:56.255Z,59.45
2024-03-14T13:45:24.146Z,59.57
2024-03-14T13:47:52.510Z,60.11
2024-03-14T13:50:20.453Z,60.23
2024-03-14T13:52:51.424Z,60.84
2024-03-14T13:55:38.106Z,60.90
2024-03-14T13:58:07.757Z,60.57
2024-03-14T14:00:48.508Z,61.31
2024-03-14T14:03:23.331Z,61.05
2024-03-14T14:05:57.069Z,60.87
2024-03-14T14:08:28.924Z,60.50
2024-03-14T14:10:56.924Z,60.49
2024-03-14T14:13:24.734Z,60.65
2024-03-14T14:15:53.767Z,60.45
2024-03-14T14:18:21.927Z,60.72
2024-03-14T14:20:49.683Z,60.52
2024-03-14T14:23:17.603Z,60.70
2024-03-14T14:25:48.306Z,61.00
2024-03-14T14:28:17.777Z,61.52
2024-03-14T14:30:45.755Z,61.95
2024-03-14T14:33:14.536Z,61.52
2024-03-14T14:35:45.600Z,61.75
2024-03-14T14:38:13.570Z,61.31
2024-03-14T14:40:41.389Z,61.99
2024-03-14T14:43:09.422Z,62.15
2024-03-14T14:45:38.897Z,62.26
2024-03-14T14:48:07.174Z,61.93
2024-03-14T14:50:35.282Z,61.66
2024-03-14T14:53:03.043Z,61.62
2024-03-14T14:55:30.890Z,61.85
2024-03-14T14:57:59.078Z,61.97
2024-03-14T15:00:27.104Z,62.67
2024-03-14T15:02:55.343Z,63.54
2024-03-14T15:05:23.249Z,64.13
2024-03-14T15:07:51.650Z,64.68
2024-03-14T15:10:19.739Z,65.54
2024-03-14T15:12:54.110Z,66.14
2024-03-14T15:15:28.179Z,66.10
2024-03-14T15:17:56.514Z,67.15
2024-03-14T15:20:25.053Z,68.09
2024-03-14T15:22:54.533Z,68.64
2024-03-14T15:25:25.946Z,68.69
2024-03-14T15:27:54.787Z,68.48
2024-03-14T15:30:24.401Z,68.67
2024-03-14T15:32:52.833Z,69.26
2024-03-14T15:35:20.836Z,69.26
2024-03-14T15:37:48.782Z,69.42
2024-03-14T15:40:17.282Z,69.94
2024-03-14T15:42:46.409Z,70.16
2024-03-14T15:45:19.357Z,70.45
2024-03-14T15:47:49.054Z,70.99
2024-03-14T15:50:17.993Z,70.88
2024-03-14T15:52:46.103Z,71.31
2024-03-14T15:55:17.131Z,71.47
2024-03-14T15:57:48.684Z,71.63
2024-03-14T16:00:17.924Z,71.75
2024-03-14T16:02:46.516Z,72.94
2024-03-14T16:05:17.753Z,72.66
2024-03-14T16:07:48.322Z,73.94
2024-03-14T16:10:17.614Z,74.23
2024-03-14T16:12:49.043Z,73.58
2024-03-14T16:15:17.883Z,74.38
2024-03-14T16:17:46.022Z,75.29
2024-03-14T16:20:33.394Z,74.76
2024-03-14T16:23:05.219Z,74.85
2024-03-14T16:25:37.015Z,74.39
2024-03-14T16:28:05.580Z,75.09
2024-03-14T16:30:33.765Z,75.98
2024-03-14T16:33:02.096Z,75.95
2024-03-14T16:35:31.003Z,75.73
2024-03-14T16:38:03.403Z,75.60
2024-03-14T16:40:33.452Z,75.83
2024-03-14T16:43:02.819Z,77.08
2024-03-14T16:45:31.392Z,76.08
2024-03-14T16:48:03.614Z,77.31
2024-03-14T16:50:32.975Z,77.88
2024-03-14T16:53:01.393Z,77.10
2024-03-14T16:55:32.624Z,77.44
2024-03-14T16:58:03.929Z,78.37
2024-03-14T17:00:32.274Z,78.07
2024-03-14T17:03:01.035Z,78.14
2024-03-14T17:05:29.892Z,77.64
2024-03-14T17:07:58.098Z,79.79
2024-03-14T17:10:27.254Z,79.24
2024-03-14T17:12:55.966Z,78.47
2024-03-14T17:15:24.010Z,79.41
2024-03-14T17:17:51.937Z,80.93
2024-03-14T17:20:19.851Z,80.12
2024-03-14T17:22:48.505Z,80.99
2024-03-14T17:25:16.669Z,81.34
2024-03-14T17:27:45.741Z,82.28
2024-03-14T17:30:17.811Z,82.57
2024-03-14T17:32:46.410Z,82.57
2024-03-14T17:35:14.542Z,81.95
2024-03-14T17:37:44.988Z,82.76
2024-03-14T17:40:13.210Z,81.57
2024-03-14T17:42:48.624Z,84.21
2024-03-14T17:45:18.814Z,83.12
2024-03-14T17:47:48.598Z,84.31
2024-03-14T17:50:17.145Z,84.77
2024-03-14T17:52:46.768Z,84.41
2024-03-14T17:55:15.746Z,85.36
2024-03-14T17:57:45.750Z,85.75
2024-03-14T18:00:18.867Z,85.52
2024-03-14T18:02:49.999Z,87.16
2024-03-14T18:05:19.166Z,86.20
2024-03-14T18:07:48.094Z,86.46
2024-03-14T18:10:16.870Z,89.49
2024-03-14T18:12:49.295Z,86.29
2024-03-14T18:15:20.190Z,87.03
2024-03-14T18:17:50.038Z,87.68
2024-03-14T18:20:19.035Z,87.64
2024-03-14T18:22:47.106Z,87.08
2024-03-14T18:25:18.727Z,87.27
2024-03-14T18:27:50.408Z,89.22
2024-03-14T18:30:21.763Z,91.14
2024-03-14T18:32:51.939Z,90.14
2024-03-14T18:35:24.284Z,88.53
2024-03-14T18:37:54.233Z,87.74
2024-03-14T18:40:27.630Z,89.22
2024-03-14T18:43:00.542Z,90.80
2024-03-14T18:45:29.091Z,89.65
2024-03-14T18:47:59.157Z,88.55
2024-03-14T18:50:27.572Z,89.04
2024-03-14T18:52:56.066Z,91.88
2024-03-14T18:55:24.753Z,92.34
2024-03-14T18:57:53.569Z,88.70
2024-03-14T19:00:26.765Z,88.24
2024-03-14T19:02:55.917Z,87.53
2024-03-14T19:05:28.586Z,87.18
2024-03-14T19:08:03.608Z,89.08
2024-03-14T19:10:34.248Z,88.46
2024-03-14T19:13:04.087Z,87.99
2024-03-14T19:15:35.129Z,89.45
2024-03-14T19:18:03.249Z,88.48
2024-03-14T19:20:31.523Z,87.55
2024-03-14T19:22:59.437Z,88.44
2024-03-14T19:25:27.255Z,88.54
2024-03-14T19:27:55.598Z,87.73
2024-03-14T19:30:25.508Z,87.99
2024-03-14T19:32:54.484Z,87.68
2024-03-14T19:35:22.335Z,88.53
2024-03-14T19:37:50.340Z,88.09
2024-03-14T19:40:18.187Z,88.31
2024-03-14T19:42:46.102Z,88.15
2024-03-14T19:45:15.884Z,88.76
2024-03-14T19:47:47.300Z,90.28
2024-03-14T19:50:15.241Z,89.09
2024-03-14T19:52:45.443Z,89.14
2024-03-14T19:55:14.641Z,90.65
2024-03-14T19:57:42.884Z,90.05
2024-03-14T20:00:12.113Z,92.08
2024-03-14T20:02:42.044Z,90.65
2024-03-14T20:05:10.160Z,89.89
2024-03-14T20:07:38.397Z,90.43
2024-03-14T20:10:08.571Z,91.17
2024-03-14T20:12:36.707Z,90.47
2024-03-14T20:15:05.146Z,90.74
2024-03-14T20:17:34.220Z,90.73
2024-03-14T20:20:08.647Z,90.41
2024-03-14T20:22:36.420Z,90.90
2024-03-14T20:25:06.255Z,90.49
2024-03-14T20:27:35.928Z,90.37
2024-03-14T20:30:05.347Z,91.32
2024-03-14T20:32:33.104Z,91.56
2024-03-14T20:35:02.449Z,91.67
2024-03-14T20:37:31.016Z,91.22
2024-03-14T20:40:02.185Z,91.77
2024-03-14T20:42:33.973Z,90.85
2024-03-14T20:45:02.084Z,92.76
2024-03-14T20:47:30.411Z,93.04
2024-03-14T20:49:58.985Z,91.27
2024-03-14T20:52:28.147Z,91.70
2024-03-14T20:57:52.926Z,93.41
2024-03-14T21:00:30.662Z,92.92
2024-03-14T21:02:59.070Z,92.86
2024-03-14T21:05:27.702Z,92.46
2024-03-14T21:07:56.513Z,92.05
2024-03-14T21:10:34.899Z,91.95
2024-03-14T21:13:06.270Z,91.65
2024-03-14T21:15:36.872Z,93.24
2024-03-14T21:18:05.019Z,92.88
2024-03-14T21:20:33.073Z,92.68
2024-03-14T21:23:01.079Z,94.77
2024-03-14T21:25:30.132Z,94.76
2024-03-14T21:28:01.557Z,94.95
2024-03-14T21:30:29.672Z,98.56
2024-03-14T21:32:58.373Z,96.00
2024-03-14T21:35:26.662Z,95.79
2024-03-14T21:37:54.788Z,96.38
2024-03-14T21:40:24.509Z,96.42
2024-03-14T21:42:53.645Z,94.60
2024-03-14T21:45:21.772Z,94.36
2024-03-14T21:47:49.773Z,93.72
2024-03-14T21:50:18.407Z,95.80
2024-03-14T21:52:46.548Z,96.99
2024-03-14T21:55:22.075Z,95.83
2024-03-14T21:57:51.622Z,96.77
2024-03-14T22:00:21.636Z,95.90
2024-03-14T22:02:51.105Z,94.64
2024-03-14T22:05:22.260Z,95.09
2024-03-14T22:07:50.457Z,94.83
2024-03-14T22:10:18.719Z,95.25
2024-03-14T22:12:46.621Z,95.09
2024-03-14T22:15:15.994Z,96.17
2024-03-14T22:17:45.386Z,97.55
2024-03-14T22:20:20.647Z,97.88
2024-03-14T22:22:49.161Z,96.67
2024-03-14T22:25:18.269Z,96.51
2024-03-14T22:27:46.563Z,95.99
2024-03-14T22:30:15.092Z,96.52
2024-03-14T22:32:43.081Z,96.41
2024-03-14T22:35:11.444Z,97.26
2024-03-14T22:37:39.456Z,97.10
2024-03-14T22:40:07.966Z,96.55
2024-03-14T22:42:36.127Z,98.64
2024-03-14T22:45:05.215Z,97.15
2024-03-14T22:47:33.434Z,97.60
2024-03-14T22:50:01.283Z,96.92
2024-03-14T22:52:29.181Z,98.01
2024-03-14T22:54:57.095Z,97.74
2024-03-14T22:57:25.047Z,97.68
2024-03-14T22:59:52.918Z,97.59
2024-03-14T23:02:21.947Z,97.13
2024-03-14T23:04:49.833Z,97.17
2024-03-14T23:07:18.567Z,98.52
2024-03-14T23:09:47.892Z,98.60
2024-03-14T23:12:17.026Z,97.84
2024-03-14T23:14:45.281Z,98.85
2024-03-14T23:17:16.252Z,98.59
2024-03-14T23:19:44.068Z,99.35
2024-03-14T23:22:11.799Z,99.47
2024-03-14T23:24:41.905Z,99.21
2024-03-14T23:27:10.145Z,99.47
2024-03-14T23:29:38.014Z,99.70
2024-03-14T23:32:05.942Z,99.94
2024-03-14T23:34:33.900Z,99.97
2024-03-14T23:37:01.665Z,99.65
2024-03-14T23:39:30.023Z,99.53
2024-03-14T23:41:57.973Z,99.65
2024-03-14T23:44:25.677Z,99.99
2024-03-14T23:46:54.169Z,99.12
2024-03-14T23:49:21.967Z,99.62
2024-03-14T23:51:49.803Z,99.81
2024-03-14T23:54:17.927Z,99.72
2024-03-14T23:56:45.742Z,99.55
2024-03-14T23:59:13.523Z,99.36
